Serra dos Orgaos Teresopo, Brazil
Current Conditions -  °F | °C
As of 6:00 AM on Saturday 29 Nov 2014 (Local Time) from SBGL Reporting Station
Broken Clouds Broken Clouds  
Wind Chill: 72°   Ceiling: 9000
Heat Index: 72°   Visibility: 4mi
Dew Point: 68°   Wind: 3mph
Humidity: 88%   Direction: 30°NNE
Pressure: 30"   Gusts: NA
Location:  22.41°S, 42.97°W
Report Text: SBGL 290800Z 03003KT 7000 SCT015 BKN090 22/20 Q1016
Loading
Personal Weather Stations






























Interactive Weather Map New forecast layout! Learn more

10-Day Weather Forecast

Advertisements
Track Severe Weather on mobile